createdAt,value
2022-08-05T00:01:35.557Z,20.40
2022-08-05T00:04:08.183Z,20.30
2022-08-05T00:06:36.776Z,20.20
2022-08-05T00:09:12.781Z,20.30
2022-08-05T00:11:49.244Z,20.20
2022-08-05T00:14:27.697Z,20.20
2022-08-05T00:16:57.701Z,20.20
2022-08-05T00:19:33.305Z,20.20
2022-08-05T00:22:11.222Z,20.20
2022-08-05T00:24:42.639Z,20.20
2022-08-05T00:27:16.639Z,20.10
2022-08-05T00:29:45.059Z,20.10
2022-08-05T00:32:15.488Z,20.10
2022-08-05T00:35:03.524Z,20.10
2022-08-05T00:37:50.649Z,20.20
2022-08-05T00:40:26.692Z,20.20
2022-08-05T00:42:58.512Z,20.10
2022-08-05T00:45:38.905Z,20.00
2022-08-05T00:48:12.165Z,20.10
2022-08-05T00:50:44.156Z,20.00
2022-08-05T00:54:00.253Z,20.00
2022-08-05T00:56:07.972Z,19.70
2022-08-05T00:58:36.312Z,20.00
2022-08-05T01:01:08.624Z,20.00
2022-08-05T01:03:37.567Z,20.00
2022-08-05T01:06:05.736Z,20.00
2022-08-05T01:08:43.321Z,19.90
2022-08-05T01:11:22.360Z,19.90
2022-08-05T01:14:15.262Z,19.90
2022-08-05T01:16:52.398Z,19.90
2022-08-05T01:20:02.368Z,20.00
2022-08-05T01:22:46.989Z,19.80
2022-08-05T01:25:52.370Z,19.90
2022-08-05T01:28:36.781Z,19.90
2022-08-05T01:31:13.472Z,19.90
2022-08-05T01:33:53.503Z,19.80
2022-08-05T01:36:28.259Z,19.80
2022-08-05T01:39:00.885Z,19.80
2022-08-05T01:41:33.334Z,19.80
2022-08-05T01:44:03.675Z,19.80
2022-08-05T01:46:41.984Z,19.80
2022-08-05T01:49:23.817Z,19.80
2022-08-05T01:51:56.116Z,19.80
2022-08-05T01:54:27.567Z,19.80
2022-08-05T01:58:12.556Z,19.80
2022-08-05T01:59:50.172Z,19.70
2022-08-05T02:02:20.987Z,19.70
2022-08-05T02:04:59.344Z,19.70
2022-08-05T02:07:30.315Z,19.60
2022-08-05T02:09:59.306Z,19.60
2022-08-05T02:12:35.762Z,19.50
2022-08-05T02:15:12.457Z,19.50
2022-08-05T02:18:32.054Z,19.50
2022-08-05T02:20:38.913Z,19.50
2022-08-05T02:23:11.393Z,19.50
2022-08-05T02:25:50.220Z,19.50
2022-08-05T02:28:28.371Z,19.50
2022-08-05T02:31:02.014Z,19.40
2022-08-05T02:33:38.742Z,19.40
2022-08-05T02:36:13.630Z,19.30
2022-08-05T02:38:53.126Z,19.30
2022-08-05T02:41:23.569Z,19.30
2022-08-05T02:44:02.222Z,19.30
2022-08-05T02:46:44.180Z,19.20
2022-08-05T02:49:26.647Z,19.20
2022-08-05T02:52:02.945Z,19.20
2022-08-05T02:54:35.687Z,19.20
2022-08-05T02:57:10.111Z,19.20
2022-08-05T02:59:56.081Z,19.20
2022-08-05T03:02:30.679Z,19.10
2022-08-05T03:05:00.865Z,19.10
2022-08-05T03:08:00.316Z,19.10
2022-08-05T03:10:24.528Z,19.10
2022-08-05T03:12:53.120Z,19.10
2022-08-05T03:15:23.440Z,19.10
2022-08-05T03:17:55.953Z,19.10
2022-08-05T03:20:26.385Z,19.10
2022-08-05T03:22:57.574Z,19.10
2022-08-05T03:26:03.410Z,19.10
2022-08-05T03:28:18.575Z,19.00
2022-08-05T03:30:50.975Z,19.00
2022-08-05T03:33:25.132Z,18.90
2022-08-05T03:36:13.205Z,18.90
2022-08-05T03:38:42.770Z,18.90
2022-08-05T03:41:23.626Z,18.80
2022-08-05T03:44:09.235Z,18.80
2022-08-05T03:46:39.694Z,18.80
2022-08-05T03:49:09.078Z,18.80
2022-08-05T03:52:38.777Z,18.70
2022-08-05T03:55:51.988Z,18.70
2022-08-05T03:57:42.636Z,18.70
2022-08-05T04:00:16.539Z,18.60
2022-08-05T04:02:57.578Z,18.60
2022-08-05T04:05:33.161Z,18.70
2022-08-05T04:08:05.778Z,18.70
2022-08-05T04:10:43.686Z,18.60
2022-08-05T04:13:13.135Z,18.70
2022-08-05T04:16:03.353Z,18.70
2022-08-05T04:18:32.341Z,18.70
2022-08-05T04:21:04.808Z,18.60
2022-08-05T04:24:05.104Z,18.60
2022-08-05T04:26:23.452Z,18.50
2022-08-05T04:28:52.088Z,18.50
2022-08-05T04:31:21.018Z,18.50
2022-08-05T04:34:17.343Z,18.50
2022-08-05T04:36:49.770Z,18.50
2022-08-05T04:39:18.840Z,18.40
2022-08-05T04:41:48.234Z,18.30
2022-08-05T04:44:21.309Z,18.30
2022-08-05T04:46:58.521Z,18.20
2022-08-05T04:50:01.422Z,18.20
2022-08-05T04:52:16.269Z,18.20
2022-08-05T04:54:44.326Z,18.10
2022-08-05T04:57:12.294Z,18.30
2022-08-05T04:59:40.846Z,18.30
2022-08-05T05:02:36.842Z,18.30
2022-08-05T05:05:01.960Z,18.20
2022-08-05T05:07:35.650Z,18.20
2022-08-05T05:10:06.463Z,18.20
2022-08-05T05:12:36.692Z,18.20
2022-08-05T05:15:05.962Z,18.20
2022-08-05T05:17:56.334Z,18.20
2022-08-05T05:20:28.549Z,18.20
2022-08-05T05:22:58.756Z,18.20
2022-08-05T05:25:32.682Z,18.30
2022-08-05T05:28:08.372Z,18.30
2022-08-05T05:30:37.374Z,18.40
2022-08-05T05:33:13.891Z,18.40
2022-08-05T05:35:45.195Z,18.50
2022-08-05T05:38:14.909Z,18.60
2022-08-05T05:40:51.933Z,18.60
2022-08-05T05:43:27.629Z,18.60
2022-08-05T05:46:15.638Z,18.70
2022-08-05T05:48:44.687Z,18.70
2022-08-05T05:51:20.215Z,18.80
2022-08-05T05:53:57.392Z,19.00
2022-08-05T05:56:32.845Z,19.10
2022-08-05T05:59:05.466Z,19.40
2022-08-05T06:01:37.742Z,19.80
2022-08-05T06:04:11.655Z,20.40
2022-08-05T06:06:42.515Z,21.10
2022-08-05T06:09:16.724Z,21.80
2022-08-05T06:12:01.491Z,22.10
2022-08-05T06:14:30.633Z,22.50
2022-08-05T06:16:59.358Z,22.80
2022-08-05T06:19:35.000Z,23.10
2022-08-05T06:22:03.816Z,23.70
2022-08-05T06:24:33.489Z,24.20
2022-08-05T06:27:04.092Z,24.50
2022-08-05T06:29:49.464Z,24.60
2022-08-05T06:32:25.101Z,24.70
2022-08-05T06:34:56.518Z,24.60
2022-08-05T06:37:58.026Z,24.50
2022-08-05T06:40:18.111Z,24.50
2022-08-05T06:42:52.117Z,24.80
2022-08-05T06:45:44.624Z,24.80
2022-08-05T06:48:44.418Z,25.00
2022-08-05T06:50:59.989Z,24.80
2022-08-05T06:53:29.170Z,25.00
2022-08-05T06:55:59.558Z,25.30
2022-08-05T06:58:35.257Z,25.30
2022-08-05T07:01:06.794Z,25.60
2022-08-05T07:03:35.764Z,25.90
2022-08-05T07:06:05.662Z,26.30
2022-08-05T07:08:42.082Z,26.40
2022-08-05T07:11:15.001Z,26.80
2022-08-05T07:14:01.108Z,26.80
2022-08-05T07:17:56.837Z,26.10
2022-08-05T07:20:16.443Z,26.50
2022-08-05T07:22:28.661Z,26.40
2022-08-05T07:24:59.164Z,26.00
2022-08-05T07:27:59.669Z,25.60
2022-08-05T07:30:24.297Z,25.40
2022-08-05T07:32:58.848Z,25.20
2022-08-05T07:36:01.996Z,25.50
2022-08-05T07:38:33.231Z,25.70
2022-08-05T07:42:08.921Z,25.30
2022-08-05T07:43:56.366Z,25.30
2022-08-05T07:46:26.477Z,25.40
2022-08-05T07:49:01.711Z,25.30
2022-08-05T07:51:36.930Z,25.40
2022-08-05T07:54:06.274Z,25.70
2022-08-05T07:56:59.930Z,25.40
2022-08-05T07:59:38.360Z,25.30
2022-08-05T08:02:16.232Z,24.60
2022-08-05T08:04:46.425Z,24.40
2022-08-05T08:07:15.467Z,24.10
2022-08-05T08:09:43.654Z,24.10
2022-08-05T08:12:35.429Z,24.20
2022-08-05T08:15:04.475Z,24.10
2022-08-05T08:17:33.111Z,23.90
2022-08-05T08:20:43.838Z,23.90
2022-08-05T08:22:54.127Z,23.60
2022-08-05T08:25:26.800Z,23.60
2022-08-05T08:28:18.678Z,23.60
2022-08-05T08:31:02.746Z,23.50
2022-08-05T08:33:37.492Z,23.50
2022-08-05T08:36:39.241Z,23.30
2022-08-05T08:38:56.997Z,23.30
2022-08-05T08:41:51.011Z,23.40
2022-08-05T08:45:19.498Z,23.60
2022-08-05T08:47:47.082Z,23.60
2022-08-05T08:50:07.820Z,23.50
2022-08-05T08:52:51.831Z,23.30
2022-08-05T08:56:01.791Z,23.10
2022-08-05T08:58:12.777Z,23.10
2022-08-05T09:00:41.801Z,22.80
2022-08-05T09:03:16.187Z,22.60
2022-08-05T09:06:07.774Z,22.60
2022-08-05T09:08:40.165Z,22.50
2022-08-05T09:11:13.704Z,22.50
2022-08-05T09:14:10.372Z,22.30
2022-08-05T09:16:32.113Z,22.40
2022-08-05T09:19:06.771Z,22.00
2022-08-05T09:22:23.393Z,21.90
2022-08-05T09:24:25.478Z,21.90
2022-08-05T09:27:03.280Z,21.90
2022-08-05T09:29:51.849Z,21.70
2022-08-05T09:32:45.924Z,21.60
2022-08-05T09:35:26.282Z,21.50
2022-08-05T09:38:12.772Z,21.40
2022-08-05T09:40:52.175Z,21.40
2022-08-05T09:43:40.991Z,21.40
2022-08-05T09:46:27.414Z,21.50
2022-08-05T09:49:08.077Z,21.60
2022-08-05T09:51:49.449Z,21.60
2022-08-05T09:54:32.675Z,21.80
2022-08-05T09:57:01.729Z,21.70
2022-08-05T09:59:34.878Z,21.70
2022-08-05T10:02:08.550Z,21.70
2022-08-05T10:04:39.659Z,21.60
2022-08-05T10:07:20.038Z,21.80
2022-08-05T10:10:15.265Z,21.70
2022-08-05T10:12:50.390Z,21.80
2022-08-05T10:15:25.993Z,21.80
2022-08-05T10:18:10.912Z,21.70
2022-08-05T10:20:44.311Z,21.60
2022-08-05T10:23:55.567Z,21.60
2022-08-05T10:26:18.727Z,21.70
2022-08-05T10:28:53.735Z,21.70
2022-08-05T10:33:00.861Z,21.70
2022-08-05T10:34:14.394Z,22.00
2022-08-05T10:36:46.495Z,22.20
2022-08-05T10:40:03.639Z,22.20
2022-08-05T10:42:33.789Z,22.20
2022-08-05T10:45:21.257Z,22.10
2022-08-05T10:48:29.174Z,22.00
2022-08-05T10:50:59.816Z,22.10
2022-08-05T10:53:38.221Z,22.20
2022-08-05T10:56:21.163Z,22.20
2022-08-05T11:00:01.364Z,22.10
2022-08-05T11:02:14.195Z,22.10
2022-08-05T11:04:57.014Z,21.90
2022-08-05T11:07:32.893Z,21.80
2022-08-05T11:10:27.238Z,21.90
2022-08-05T11:12:58.557Z,22.00
2022-08-05T11:16:00.068Z,22.10
2022-08-05T11:18:34.880Z,22.10
2022-08-05T11:21:11.209Z,22.00
2022-08-05T11:24:04.887Z,22.10
2022-08-05T11:26:34.431Z,22.20
2022-08-05T11:29:12.924Z,22.20
2022-08-05T11:31:56.486Z,22.20
2022-08-05T11:34:47.459Z,22.30
2022-08-05T11:38:45.823Z,22.30
2022-08-05T11:41:13.966Z,22.40
2022-08-05T11:44:01.032Z,22.50
2022-08-05T11:47:10.244Z,22.60
2022-08-05T11:49:33.807Z,22.70
2022-08-05T11:52:11.166Z,22.50
2022-08-05T11:54:41.385Z,22.60
2022-08-05T11:57:24.785Z,22.80
2022-08-05T11:59:55.088Z,22.80
2022-08-05T12:02:33.019Z,22.90
2022-08-05T12:05:07.067Z,23.00
2022-08-05T12:08:09.693Z,23.10
2022-08-05T12:10:43.492Z,23.10
2022-08-05T12:13:47.591Z,23.30
2022-08-05T12:16:15.098Z,23.40
2022-08-05T12:18:53.084Z,23.40
2022-08-05T12:21:24.859Z,23.50
2022-08-05T12:24:00.047Z,23.40
2022-08-05T12:26:33.893Z,23.50
2022-08-05T12:29:03.293Z,23.60
2022-08-05T12:31:53.761Z,23.60
2022-08-05T12:34:29.224Z,23.30
2022-08-05T12:39:42.113Z,23.20
2022-08-05T12:42:17.239Z,23.20
2022-08-05T12:44:47.543Z,23.30
2022-08-05T12:47:32.090Z,23.10
2022-08-05T12:50:27.262Z,23.00
2022-08-05T12:53:02.489Z,23.20
2022-08-05T12:55:35.304Z,23.10
2022-08-05T12:58:48.593Z,23.10
2022-08-05T13:02:01.009Z,23.00
2022-08-05T13:03:45.454Z,22.90
2022-08-05T13:06:21.987Z,22.90
2022-08-05T13:08:52.971Z,23.00
2022-08-05T13:12:01.191Z,23.00
2022-08-05T13:14:36.659Z,23.10
2022-08-05T13:17:10.257Z,23.10
2022-08-05T13:19:40.411Z,23.30
2022-08-05T13:22:29.397Z,23.40
2022-08-05T13:25:05.725Z,23.20
2022-08-05T13:27:39.053Z,23.30
2022-08-05T13:30:32.354Z,23.40
2022-08-05T13:33:00.829Z,23.40
2022-08-05T13:35:46.988Z,23.30
2022-08-05T13:38:30.838Z,23.40
2022-08-05T13:41:03.300Z,23.40
2022-08-05T13:43:45.034Z,23.40
2022-08-05T13:46:43.955Z,23.30
2022-08-05T13:49:12.652Z,23.40
2022-08-05T13:51:46.189Z,23.30
2022-08-05T13:54:20.983Z,23.40
2022-08-05T13:56:56.504Z,23.20
2022-08-05T13:59:27.240Z,23.20
2022-08-05T14:01:58.016Z,23.30
2022-08-05T14:04:50.815Z,23.30
2022-08-05T14:08:00.419Z,23.10
2022-08-05T14:10:30.784Z,23.10
2022-08-05T14:13:00.604Z,23.20
2022-08-05T14:16:07.597Z,22.90
2022-08-05T14:18:23.198Z,22.80
2022-08-05T14:20:55.454Z,22.60
2022-08-05T14:23:26.923Z,22.60
2022-08-05T14:25:59.699Z,22.30
2022-08-05T14:28:29.353Z,22.50
2022-08-05T14:30:57.787Z,22.70
2022-08-05T14:33:25.977Z,22.90
2022-08-05T14:35:54.884Z,23.00
2022-08-05T14:38:31.859Z,22.80
2022-08-05T14:41:07.848Z,22.80
2022-08-05T14:44:01.781Z,22.80
2022-08-05T14:46:28.497Z,22.60
2022-08-05T14:49:06.379Z,22.80
2022-08-05T14:51:42.733Z,22.90
2022-08-05T14:54:27.465Z,22.70
2022-08-05T14:56:59.417Z,22.80
2022-08-05T14:59:29.364Z,22.80
2022-08-05T15:02:04.007Z,22.80
2022-08-05T15:04:47.709Z,22.60
2022-08-05T15:08:05.449Z,22.60
2022-08-05T15:10:09.874Z,22.50
2022-08-05T15:13:00.539Z,22.60
2022-08-05T15:15:54.210Z,22.60
2022-08-05T15:18:17.293Z,22.70
2022-08-05T15:20:46.044Z,22.80
2022-08-05T15:23:14.535Z,22.60
2022-08-05T15:25:52.933Z,22.30
2022-08-05T15:28:27.655Z,22.40
2022-08-05T15:30:56.591Z,22.30
2022-08-05T15:34:05.507Z,22.20
2022-08-05T15:36:17.528Z,22.50
2022-08-05T15:40:41.290Z,22.30
2022-08-05T15:41:55.544Z,22.20
2022-08-05T15:44:26.362Z,22.10
2022-08-05T15:46:56.210Z,22.10
2022-08-05T15:49:53.344Z,22.20
2022-08-05T15:52:52.195Z,22.20
2022-08-05T15:55:10.277Z,21.80
2022-08-05T15:57:45.056Z,21.90
2022-08-05T16:00:26.371Z,21.90
2022-08-05T16:03:06.313Z,21.90
2022-08-05T16:05:35.288Z,21.80
2022-08-05T16:08:07.697Z,21.50
2022-08-05T16:10:36.090Z,21.70
2022-08-05T16:13:04.370Z,21.90
2022-08-05T16:15:36.226Z,21.70
2022-08-05T16:18:09.301Z,21.60
2022-08-05T16:20:38.053Z,21.40
2022-08-05T16:23:08.608Z,21.30
2022-08-05T16:25:37.415Z,21.00
2022-08-05T16:28:09.830Z,20.70
2022-08-05T16:30:41.583Z,20.90
2022-08-05T16:33:10.104Z,20.80
2022-08-05T16:35:41.898Z,20.90
2022-08-05T16:38:18.598Z,20.80
2022-08-05T16:41:00.319Z,21.00
2022-08-05T16:43:33.089Z,21.20
2022-08-05T16:46:13.096Z,21.10
2022-08-05T16:48:57.026Z,20.50
2022-08-05T16:51:31.063Z,20.70
2022-08-05T16:54:16.074Z,20.80
2022-08-05T16:56:45.845Z,20.90
2022-08-05T16:59:21.416Z,21.00
2022-08-05T17:01:56.434Z,20.90
2022-08-05T17:04:27.311Z,21.10
2022-08-05T17:06:59.920Z,20.70
2022-08-05T17:09:28.519Z,20.30
2022-08-05T17:11:59.647Z,20.40
2022-08-05T17:14:37.730Z,20.20
2022-08-05T17:17:14.855Z,20.10
2022-08-05T17:19:53.898Z,20.20
2022-08-05T17:22:25.921Z,20.40
2022-08-05T17:24:56.870Z,20.20
2022-08-05T17:27:25.546Z,20.30
2022-08-05T17:29:59.784Z,20.30
2022-08-05T17:32:33.846Z,20.30
2022-08-05T17:35:03.243Z,20.10
2022-08-05T17:37:40.254Z,20.20
2022-08-05T17:40:12.427Z,20.30
2022-08-05T17:42:51.258Z,20.10
2022-08-05T17:45:29.521Z,20.10
2022-08-05T17:48:08.899Z,19.90
2022-08-05T17:50:38.063Z,19.90
2022-08-05T17:53:08.586Z,19.90
2022-08-05T17:55:39.675Z,19.90
2022-08-05T17:58:12.912Z,20.00
2022-08-05T18:00:44.602Z,19.70
2022-08-05T18:03:56.225Z,19.60
2022-08-05T18:06:14.987Z,19.50
2022-08-05T18:08:52.067Z,19.60
2022-08-05T18:11:32.417Z,19.50
2022-08-05T18:14:03.500Z,19.40
2022-08-05T18:16:46.849Z,19.40
2022-08-05T18:19:37.281Z,19.50
2022-08-05T18:22:18.097Z,19.40
2022-08-05T18:24:50.043Z,19.40
2022-08-05T18:27:24.947Z,19.50
2022-08-05T18:29:54.799Z,19.40
2022-08-05T18:32:28.041Z,19.40
2022-08-05T18:34:59.466Z,19.50
2022-08-05T18:37:34.103Z,19.40
2022-08-05T18:41:53.087Z,19.40
2022-08-05T18:42:57.578Z,19.30
2022-08-05T18:45:41.457Z,19.10
2022-08-05T18:48:12.052Z,19.00
2022-08-05T18:52:04.052Z,19.00
2022-08-05T18:54:10.154Z,19.00
2022-08-05T18:56:40.328Z,19.10
2022-08-05T18:59:42.632Z,19.00
2022-08-05T19:01:58.612Z,18.80
2022-08-05T19:04:27.526Z,18.60
2022-08-05T19:06:57.247Z,18.70
2022-08-05T19:09:25.307Z,18.70
2022-08-05T19:11:58.654Z,18.60
2022-08-05T19:14:59.348Z,18.70
2022-08-05T19:17:22.070Z,18.60
2022-08-05T19:19:56.056Z,18.50
2022-08-05T19:22:43.504Z,18.90
2022-08-05T19:25:21.585Z,18.50
2022-08-05T19:28:00.751Z,18.50
2022-08-05T19:30:28.899Z,18.40
2022-08-05T19:32:57.146Z,18.30
2022-08-05T19:35:25.452Z,18.30
2022-08-05T19:38:24.045Z,18.50
2022-08-05T19:40:54.959Z,18.60
2022-08-05T19:44:04.187Z,18.50
2022-08-05T19:46:16.771Z,18.40
2022-08-05T19:48:57.908Z,18.40
2022-08-05T19:51:59.854Z,18.20
2022-08-05T19:54:31.198Z,18.20
2022-08-05T19:57:06.413Z,18.20
2022-08-05T19:59:55.476Z,18.10
2022-08-05T20:02:32.217Z,18.20
2022-08-05T20:05:04.998Z,18.20
2022-08-05T20:07:47.028Z,18.20
2022-08-05T20:10:22.371Z,18.00
2022-08-05T20:12:59.942Z,18.00
2022-08-05T20:15:51.924Z,18.10
2022-08-05T20:18:33.829Z,18.00
2022-08-05T20:21:12.654Z,17.90
2022-08-05T20:23:51.353Z,17.90
2022-08-05T20:26:27.495Z,18.00
2022-08-05T20:29:00.726Z,17.80
2022-08-05T20:31:42.219Z,17.80
2022-08-05T20:34:12.680Z,17.80
2022-08-05T20:36:44.164Z,17.80
2022-08-05T20:39:22.879Z,17.80
2022-08-05T20:42:00.367Z,17.80
2022-08-05T20:44:31.095Z,17.70
2022-08-05T20:47:00.783Z,17.80
2022-08-05T20:49:29.656Z,17.60
2022-08-05T20:52:04.045Z,17.60
2022-08-05T20:54:43.413Z,17.50
2022-08-05T20:57:43.530Z,17.50
2022-08-05T21:00:35.068Z,17.50
2022-08-05T21:03:06.926Z,17.50
2022-08-05T21:05:47.494Z,17.50
2022-08-05T21:08:26.337Z,17.40
2022-08-05T21:11:00.541Z,17.40
2022-08-05T21:13:56.479Z,17.40
2022-08-05T21:16:22.032Z,17.30
2022-08-05T21:18:52.048Z,17.30
2022-08-05T21:21:24.712Z,17.30
2022-08-05T21:23:53.194Z,17.30
2022-08-05T21:26:22.853Z,17.40
2022-08-05T21:28:57.153Z,17.60
2022-08-05T21:31:41.629Z,17.30
2022-08-05T21:34:11.510Z,17.40
2022-08-05T21:36:42.435Z,17.30
2022-08-05T21:39:26.521Z,17.30
2022-08-05T21:42:01.640Z,17.30
2022-08-05T21:44:34.551Z,17.20
2022-08-05T21:47:02.517Z,17.10
2022-08-05T21:49:58.932Z,17.10
2022-08-05T21:52:27.829Z,17.10
2022-08-05T21:55:06.201Z,17.10
2022-08-05T21:57:35.417Z,17.00
2022-08-05T22:00:11.334Z,17.10
2022-08-05T22:02:40.144Z,17.00
2022-08-05T22:05:14.088Z,16.80
2022-08-05T22:08:02.052Z,17.00
2022-08-05T22:10:31.144Z,17.00
2022-08-05T22:14:05.175Z,16.90
2022-08-05T22:16:01.991Z,16.80
2022-08-05T22:18:39.547Z,16.80
2022-08-05T22:21:19.268Z,16.80
2022-08-05T22:24:09.093Z,16.70
2022-08-05T22:26:59.286Z,16.70
2022-08-05T22:29:30.858Z,16.70
2022-08-05T22:32:05.142Z,16.60
2022-08-05T22:34:39.164Z,16.60
2022-08-05T22:37:08.851Z,16.60
2022-08-05T22:39:39.109Z,16.60
2022-08-05T22:42:11.016Z,16.50
2022-08-05T22:44:40.129Z,16.50
2022-08-05T22:47:11.919Z,16.60
2022-08-05T22:50:19.595Z,16.50
2022-08-05T22:52:34.356Z,16.50
2022-08-05T22:55:02.578Z,16.40
2022-08-05T22:57:36.547Z,16.40
2022-08-05T23:00:07.831Z,16.40
2022-08-05T23:02:46.360Z,16.40
2022-08-05T23:05:15.017Z,16.30
2022-08-05T23:07:50.473Z,16.30
2022-08-05T23:10:20.942Z,16.30
2022-08-05T23:12:55.116Z,16.20
2022-08-05T23:15:29.811Z,16.10
2022-08-05T23:18:06.129Z,16.10
2022-08-05T23:20:43.205Z,16.10
2022-08-05T23:23:12.469Z,16.00
2022-08-05T23:25:53.093Z,16.00
2022-08-05T23:28:29.509Z,16.00
2022-08-05T23:31:17.391Z,16.00
2022-08-05T23:34:04.794Z,16.00
2022-08-05T23:36:39.997Z,15.90
2022-08-05T23:39:17.191Z,15.90
2022-08-05T23:41:54.020Z,15.90
2022-08-05T23:44:31.077Z,15.90
2022-08-05T23:47:02.607Z,15.80
2022-08-05T23:49:46.816Z,15.80
2022-08-05T23:52:35.925Z,15.80
2022-08-05T23:55:08.969Z,15.80
2022-08-05T23:57:37.632Z,15.70
